createdAt,value
2023-02-21T00:00:31.837Z,21.60
2023-02-21T00:04:52.512Z,22.25
2023-02-21T00:09:12.841Z,23.42
2023-02-21T00:13:33.340Z,23.48
2023-02-21T00:17:54.004Z,23.25
2023-02-21T00:22:14.433Z,23.48
2023-02-21T00:26:40.012Z,23.30
2023-02-21T00:31:00.621Z,23.67
2023-02-21T00:35:21.011Z,22.40
2023-02-21T00:39:41.516Z,25.08
2023-02-21T00:44:01.898Z,24.10
2023-02-21T00:48:22.392Z,24.00
2023-02-21T00:52:42.865Z,24.52
2023-02-21T00:57:03.662Z,24.65
2023-02-21T01:01:24.158Z,25.70
2023-02-21T01:05:44.557Z,24.42
2023-02-21T01:10:04.989Z,23.90
2023-02-21T01:14:28.316Z,24.35
2023-02-21T01:18:49.141Z,23.17
2023-02-21T01:23:09.586Z,24.33
2023-02-21T01:27:29.892Z,24.65
2023-02-21T01:31:50.283Z,22.90
2023-02-21T01:36:10.748Z,22.27
2023-02-21T01:40:34.663Z,23.77
2023-02-21T01:45:03.370Z,23.73
2023-02-21T01:49:34.130Z,22.80
2023-02-21T01:53:54.574Z,23.58
2023-02-21T01:58:15.415Z,22.98
2023-02-21T02:02:44.875Z,23.67
2023-02-21T02:07:05.281Z,23.33
2023-02-21T02:11:36.154Z,23.25
2023-02-21T02:15:56.098Z,22.17
2023-02-21T02:20:38.333Z,23.50
2023-02-21T02:25:03.615Z,23.50
2023-02-21T02:29:08.384Z,22.25
2023-02-21T02:33:31.942Z,22.58
2023-02-21T02:37:53.877Z,22.17
2023-02-21T02:42:19.246Z,21.77
2023-02-21T02:46:26.565Z,23.98
2023-02-21T02:50:29.279Z,23.17
2023-02-21T02:54:31.285Z,23.08
2023-02-21T02:58:47.610Z,23.25
2023-02-21T03:03:44.587Z,23.67
2023-02-21T03:08:14.814Z,23.08
2023-02-21T03:12:23.725Z,22.67
2023-02-21T03:16:27.625Z,23.83
2023-02-21T03:20:29.519Z,23.45
2023-02-21T03:24:32.708Z,23.92
2023-02-21T03:28:35.780Z,24.60
2023-02-21T03:32:46.084Z,23.85
2023-02-21T03:36:48.810Z,23.70
2023-02-21T03:40:50.747Z,25.17
2023-02-21T03:44:52.495Z,26.50
2023-02-21T03:48:54.116Z,25.30
2023-02-21T03:52:55.741Z,25.88
2023-02-21T03:56:57.366Z,27.92
2023-02-21T04:00:59.277Z,27.25
2023-02-21T04:05:00.961Z,27.90
2023-02-21T04:09:03.076Z,28.45
2023-02-21T04:13:04.925Z,29.50
2023-02-21T04:17:06.576Z,30.73
2023-02-21T04:21:08.236Z,30.70
2023-02-21T04:25:10.153Z,30.20
2023-02-21T04:29:12.212Z,33.13
2023-02-21T04:33:13.849Z,31.45
2023-02-21T04:37:15.554Z,33.55
2023-02-21T04:41:17.810Z,33.10
2023-02-21T04:45:19.569Z,32.90
2023-02-21T04:49:21.390Z,33.08
2023-02-21T04:53:23.050Z,33.22
2023-02-21T04:57:24.833Z,32.35
2023-02-21T05:01:31.167Z,32.63
2023-02-21T05:05:32.891Z,34.90
2023-02-21T05:09:34.531Z,32.97
2023-02-21T05:13:36.207Z,31.90
2023-02-21T05:17:37.927Z,31.85
2023-02-21T05:21:39.549Z,33.50
2023-02-21T05:25:41.213Z,30.70
2023-02-21T05:29:50.513Z,32.80
2023-02-21T05:33:52.168Z,31.42
2023-02-21T05:37:53.911Z,31.52
2023-02-21T05:41:55.578Z,31.80
2023-02-21T05:45:57.229Z,31.10
2023-02-21T05:49:58.902Z,31.85
2023-02-21T05:54:00.564Z,29.67
2023-02-21T05:58:02.191Z,32.28
2023-02-21T06:02:03.911Z,31.02
2023-02-21T06:06:05.846Z,30.95
2023-02-21T06:10:08.041Z,31.37
2023-02-21T06:14:18.684Z,30.92
2023-02-21T06:18:20.339Z,32.80
2023-02-21T06:22:22.009Z,32.00
2023-02-21T06:26:23.717Z,31.05
2023-02-21T06:30:25.942Z,29.40
2023-02-21T06:34:28.706Z,32.20
2023-02-21T06:38:30.378Z,32.20
2023-02-21T06:42:31.971Z,31.08
2023-02-21T06:46:36.227Z,30.77
2023-02-21T06:50:37.905Z,31.98
2023-02-21T06:54:39.626Z,28.87
2023-02-21T06:58:41.329Z,26.83
2023-02-21T07:02:43.793Z,28.50
2023-02-21T07:06:45.497Z,27.58
2023-02-21T07:10:47.858Z,26.85
2023-02-21T07:14:49.486Z,26.75
2023-02-21T07:18:51.141Z,27.05
2023-02-21T07:22:52.876Z,28.27
2023-02-21T07:26:55.352Z,30.73
2023-02-21T07:30:57.236Z,30.77
2023-02-21T07:34:58.860Z,30.33
2023-02-21T07:39:00.486Z,30.40
2023-02-21T07:43:02.370Z,28.02
2023-02-21T07:47:04.154Z,28.65
2023-02-21T07:51:09.522Z,26.15
2023-02-21T07:55:13.079Z,25.23
2023-02-21T07:59:15.424Z,23.17
2023-02-21T08:03:17.061Z,24.67
2023-02-21T08:07:19.555Z,25.98
2023-02-21T08:11:21.457Z,24.58
2023-02-21T08:15:23.140Z,25.33
2023-02-21T08:19:24.835Z,26.20
2023-02-21T08:23:26.852Z,26.95
2023-02-21T08:27:28.570Z,24.12
2023-02-21T08:31:30.246Z,23.60
2023-02-21T08:35:32.094Z,23.77
2023-02-21T08:39:33.791Z,24.80
2023-02-21T08:43:35.509Z,22.55
2023-02-21T08:47:37.129Z,22.27
2023-02-21T08:51:39.995Z,21.67
2023-02-21T08:55:42.975Z,21.50
2023-02-21T08:59:45.212Z,22.15
2023-02-21T09:03:47.463Z,21.75
2023-02-21T09:07:49.590Z,21.15
2023-02-21T09:11:51.232Z,21.10
2023-02-21T09:15:52.909Z,21.83
2023-02-21T09:19:54.558Z,21.55
2023-02-21T09:23:59.081Z,20.35
2023-02-21T09:28:01.934Z,21.17
2023-02-21T09:32:04.474Z,19.52
2023-02-21T09:36:09.661Z,21.17
2023-02-21T09:40:18.067Z,20.83
2023-02-21T09:44:27.219Z,18.80
2023-02-21T09:48:29.613Z,19.60
2023-02-21T09:52:38.098Z,18.62
2023-02-21T09:56:40.820Z,16.00
2023-02-21T10:00:46.160Z,17.98
2023-02-21T10:05:03.167Z,18.50
2023-02-21T10:09:36.941Z,18.40
2023-02-21T10:13:52.777Z,19.12
2023-02-21T10:18:03.288Z,20.62
2023-02-21T10:22:25.213Z,19.80
2023-02-21T10:26:29.173Z,20.92
2023-02-21T10:30:37.582Z,22.08
2023-02-21T10:34:40.123Z,20.33
2023-02-21T10:38:54.751Z,21.27
2023-02-21T10:43:37.790Z,21.45
2023-02-21T10:47:58.481Z,22.33
2023-02-21T10:52:06.567Z,17.33
2023-02-21T10:56:20.330Z,18.60
2023-02-21T11:00:48.268Z,16.37
2023-02-21T11:04:53.281Z,16.20
2023-02-21T11:08:55.164Z,13.68
2023-02-21T11:13:14.145Z,13.95
2023-02-21T11:17:23.743Z,13.88
2023-02-21T11:21:25.443Z,14.43
2023-02-21T11:25:31.603Z,14.93
2023-02-21T11:29:34.541Z,16.00
2023-02-21T11:33:40.471Z,14.90
2023-02-21T11:38:03.206Z,16.17
2023-02-21T11:42:31.442Z,16.77
2023-02-21T11:46:47.196Z,15.90
2023-02-21T11:50:51.777Z,16.67
2023-02-21T11:54:53.511Z,15.18
2023-02-21T11:59:19.976Z,15.70
2023-02-21T12:03:27.747Z,16.15
2023-02-21T12:07:50.455Z,17.95
2023-02-21T12:12:36.573Z,20.65
2023-02-21T12:17:04.887Z,20.95
2023-02-21T12:21:19.235Z,21.92
2023-02-21T12:25:46.070Z,21.73
2023-02-21T12:30:06.922Z,21.25
2023-02-21T12:34:33.713Z,18.50
2023-02-21T12:39:00.459Z,18.23
2023-02-21T12:43:39.227Z,17.55
2023-02-21T12:47:56.033Z,17.50
2023-02-21T12:52:15.200Z,18.23
2023-02-21T12:56:42.835Z,19.55
2023-02-21T13:00:49.855Z,17.75
2023-02-21T13:04:57.079Z,18.75
2023-02-21T13:13:14.863Z,18.87
2023-02-21T13:17:18.068Z,19.37
2023-02-21T13:21:52.772Z,18.55
2023-02-21T13:26:04.190Z,19.17
2023-02-21T13:30:12.058Z,18.60
2023-02-21T13:34:19.287Z,20.10
2023-02-21T13:42:26.185Z,20.60
2023-02-21T13:46:31.140Z,21.12
2023-02-21T13:50:39.520Z,22.42
2023-02-21T13:55:15.588Z,23.05
2023-02-21T13:59:26.162Z,24.37
2023-02-21T14:03:28.424Z,24.27
2023-02-21T14:07:45.210Z,25.10
2023-02-21T14:11:52.548Z,23.52
2023-02-21T14:16:07.823Z,23.25
2023-02-21T14:20:16.386Z,24.30
2023-02-21T14:24:27.187Z,20.88
2023-02-21T14:28:56.694Z,21.27
2023-02-21T14:33:27.791Z,20.23
2023-02-21T14:38:03.387Z,25.85
2023-02-21T14:42:26.848Z,25.98
2023-02-21T14:46:40.896Z,26.85
2023-02-21T14:51:14.106Z,30.48
2023-02-21T14:55:50.258Z,27.98
2023-02-21T15:00:01.312Z,25.98
2023-02-21T15:04:17.064Z,24.83
2023-02-21T15:08:25.255Z,25.83
2023-02-21T15:12:27.953Z,28.10
2023-02-21T15:16:31.948Z,25.83
2023-02-21T15:20:39.193Z,24.40
2023-02-21T15:24:42.779Z,23.40
2023-02-21T15:28:45.511Z,25.92
2023-02-21T15:32:56.032Z,28.75
2023-02-21T15:37:08.627Z,29.50
2023-02-21T15:41:23.714Z,29.30
2023-02-21T15:45:38.443Z,25.48
2023-02-21T15:50:10.706Z,21.10
2023-02-21T15:54:21.529Z,18.17
2023-02-21T15:58:24.676Z,17.48
2023-02-21T16:02:26.477Z,18.37
2023-02-21T16:06:34.782Z,18.48
2023-02-21T16:10:36.503Z,18.42
2023-02-21T16:14:56.393Z,18.20
2023-02-21T16:18:58.130Z,17.50
2023-02-21T16:23:19.876Z,18.62
2023-02-21T16:27:21.518Z,18.85
2023-02-21T16:31:31.144Z,19.42
2023-02-21T16:35:33.503Z,19.00
2023-02-21T16:39:35.369Z,18.58
2023-02-21T16:43:37.067Z,18.70
2023-02-21T16:47:38.683Z,19.12
2023-02-21T16:51:43.482Z,17.70
2023-02-21T16:55:45.609Z,18.73
2023-02-21T16:59:47.310Z,18.00
2023-02-21T17:03:48.971Z,18.08
2023-02-21T17:07:52.910Z,18.27
2023-02-21T17:11:55.192Z,18.17
2023-02-21T17:15:56.823Z,18.17
2023-02-21T17:19:58.540Z,17.12
2023-02-21T17:24:00.169Z,19.70
2023-02-21T17:28:02.068Z,19.25
2023-02-21T17:32:06.948Z,19.15
2023-02-21T17:36:08.833Z,18.55
2023-02-21T17:40:11.265Z,18.45
2023-02-21T17:44:12.968Z,17.85
2023-02-21T17:48:14.580Z,17.40
2023-02-21T17:52:17.300Z,18.95
2023-02-21T17:56:21.233Z,19.92
2023-02-21T18:00:25.710Z,18.23
2023-02-21T18:04:27.378Z,17.58
2023-02-21T18:08:29.065Z,19.02
2023-02-21T18:12:33.189Z,18.75
2023-02-21T18:16:34.863Z,17.33
2023-02-21T18:20:36.789Z,19.23
2023-02-21T18:24:40.048Z,18.45
2023-02-21T18:28:42.057Z,19.33
2023-02-21T18:32:43.826Z,16.67
2023-02-21T18:36:53.864Z,18.42
2023-02-21T18:41:00.196Z,19.08
2023-02-21T18:45:01.899Z,19.20
2023-02-21T18:49:04.028Z,18.23
2023-02-21T18:53:05.768Z,16.62
2023-02-21T18:57:07.354Z,18.00
2023-02-21T19:01:11.553Z,17.75
2023-02-21T19:05:19.016Z,18.77
2023-02-21T19:09:20.625Z,17.33
2023-02-21T19:13:22.299Z,18.58
2023-02-21T19:17:23.986Z,16.70
2023-02-21T19:21:26.609Z,18.23
2023-02-21T19:25:29.440Z,18.40
2023-02-21T19:29:31.165Z,16.42
2023-02-21T19:33:33.396Z,17.60
2023-02-21T19:37:35.949Z,17.25
2023-02-21T19:41:37.985Z,18.55
2023-02-21T19:45:39.809Z,20.83
2023-02-21T19:49:45.735Z,19.40
2023-02-21T19:53:47.749Z,17.90
2023-02-21T19:57:49.626Z,17.50
2023-02-21T20:01:51.777Z,18.58
2023-02-21T20:05:53.438Z,19.02
2023-02-21T20:09:55.232Z,18.48
2023-02-21T20:13:57.081Z,19.23
2023-02-21T20:17:58.771Z,20.37
2023-02-21T20:22:00.455Z,20.37
2023-02-21T20:26:02.079Z,19.42
2023-02-21T20:30:05.743Z,19.58
2023-02-21T20:34:07.399Z,20.62
2023-02-21T20:38:10.697Z,19.73
2023-02-21T20:42:12.408Z,19.35
2023-02-21T20:46:19.264Z,21.00
2023-02-21T20:50:24.581Z,20.10
2023-02-21T20:54:26.261Z,18.33
2023-02-21T20:58:27.978Z,18.08
2023-02-21T21:02:29.642Z,19.15
2023-02-21T21:06:31.804Z,18.17
2023-02-21T21:10:33.466Z,18.12
2023-02-21T21:14:39.433Z,17.35
2023-02-21T21:18:42.599Z,17.58
2023-02-21T21:22:44.226Z,19.08
2023-02-21T21:26:53.113Z,18.58
2023-02-21T21:30:54.889Z,17.65
2023-02-21T21:34:58.100Z,17.80
2023-02-21T21:38:59.834Z,18.00
2023-02-21T21:43:02.483Z,20.50
2023-02-21T21:47:04.506Z,19.58
2023-02-21T21:51:06.526Z,19.83
2023-02-21T21:55:09.333Z,19.77
2023-02-21T21:59:11.204Z,20.77
2023-02-21T22:03:18.131Z,21.25
2023-02-21T22:07:20.536Z,20.73
2023-02-21T22:11:22.665Z,21.20
2023-02-21T22:15:26.509Z,20.50
2023-02-21T22:19:28.791Z,20.17
2023-02-21T22:23:30.421Z,20.80
2023-02-21T22:27:32.061Z,20.92
2023-02-21T22:31:33.977Z,19.98
2023-02-21T22:35:36.045Z,20.62
2023-02-21T22:39:38.422Z,21.55
2023-02-21T22:43:40.081Z,19.80
2023-02-21T22:47:41.786Z,20.55
2023-02-21T22:51:43.837Z,19.58
2023-02-21T22:55:51.580Z,20.73
2023-02-21T22:59:57.840Z,22.60
2023-02-21T23:04:10.549Z,23.77
2023-02-21T23:08:14.236Z,27.75
2023-02-21T23:12:15.886Z,27.33
2023-02-21T23:16:23.711Z,27.02
2023-02-21T23:20:26.905Z,22.62
2023-02-21T23:24:28.575Z,22.67
2023-02-21T23:28:30.540Z,22.58
2023-02-21T23:32:32.181Z,21.73
2023-02-21T23:36:33.941Z,21.17
2023-02-21T23:40:39.105Z,20.40
2023-02-21T23:44:41.193Z,20.15
2023-02-21T23:48:44.896Z,19.98
2023-02-21T23:52:51.744Z,23.87
2023-02-21T23:56:53.381Z,26.45
